createdAt,value
2023-05-10T00:00:27.539Z,64.88
2023-05-10T00:02:54.551Z,63.84
2023-05-10T00:05:21.577Z,63.71
2023-05-10T00:07:48.503Z,63.82
2023-05-10T00:10:15.776Z,63.96
2023-05-10T00:12:43.413Z,64.98
2023-05-10T00:15:10.696Z,64.26
2023-05-10T00:17:38.102Z,64.17
2023-05-10T00:20:06.097Z,63.98
2023-05-10T00:22:33.194Z,64.21
2023-05-10T00:25:00.204Z,64.10
2023-05-10T00:27:27.082Z,64.62
2023-05-10T00:29:53.964Z,62.27
2023-05-10T00:32:21.826Z,63.80
2023-05-10T00:34:49.263Z,64.16
2023-05-10T00:37:16.363Z,64.04
2023-05-10T00:39:43.449Z,64.01
2023-05-10T00:42:10.680Z,63.91
2023-05-10T00:44:38.147Z,64.38
2023-05-10T00:47:05.573Z,64.35
2023-05-10T00:49:32.760Z,64.64
2023-05-10T00:51:59.968Z,64.82
2023-05-10T00:54:27.078Z,64.68
2023-05-10T00:56:54.318Z,64.63
2023-05-10T00:59:21.386Z,63.25
2023-05-10T01:01:48.653Z,63.69
2023-05-10T01:04:16.126Z,63.90
2023-05-10T01:06:43.666Z,63.75
2023-05-10T01:09:11.302Z,63.30
2023-05-10T01:11:39.488Z,63.42
2023-05-10T01:14:06.698Z,63.19
2023-05-10T01:16:35.886Z,63.26
2023-05-10T01:19:02.766Z,63.12
2023-05-10T01:21:41.696Z,62.35
2023-05-10T01:24:08.700Z,62.54
2023-05-10T01:26:57.009Z,62.85
2023-05-10T01:29:27.043Z,62.77
2023-05-10T01:32:08.866Z,62.63
2023-05-10T01:35:04.116Z,62.78
2023-05-10T01:37:54.170Z,62.72
2023-05-10T01:40:32.996Z,62.48
2023-05-10T01:43:04.313Z,63.15
2023-05-10T01:45:48.367Z,62.91
2023-05-10T01:48:15.433Z,62.79
2023-05-10T01:50:45.543Z,62.73
2023-05-10T01:53:13.247Z,63.12
2023-05-10T01:55:47.112Z,62.82
2023-05-10T01:58:22.758Z,61.93
2023-05-10T02:00:50.870Z,62.09
2023-05-10T02:03:18.398Z,62.76
2023-05-10T02:05:46.515Z,62.87
2023-05-10T02:08:13.553Z,62.85
2023-05-10T02:10:40.848Z,62.79
2023-05-10T02:13:07.806Z,62.88
2023-05-10T02:15:34.856Z,62.54
2023-05-10T02:18:02.074Z,62.27
2023-05-10T02:20:29.334Z,62.24
2023-05-10T02:22:57.509Z,62.69
2023-05-10T02:25:24.822Z,63.18
2023-05-10T02:27:51.671Z,63.55
2023-05-10T02:30:19.256Z,63.89
2023-05-10T02:32:46.456Z,63.47
2023-05-10T02:35:13.452Z,63.85
2023-05-10T02:37:40.424Z,63.43
2023-05-10T02:40:08.047Z,63.69
2023-05-10T02:42:37.851Z,63.54
2023-05-10T02:45:12.634Z,64.16
2023-05-10T02:47:39.520Z,63.40
2023-05-10T02:50:06.878Z,64.42
2023-05-10T02:52:49.628Z,63.75
2023-05-10T02:55:18.069Z,62.71
2023-05-10T02:57:50.229Z,62.17
2023-05-10T03:00:17.678Z,62.47
2023-05-10T03:02:45.357Z,61.97
2023-05-10T03:05:12.387Z,60.45
2023-05-10T03:07:39.555Z,60.55
2023-05-10T03:10:07.521Z,62.13
2023-05-10T03:12:53.121Z,61.98
2023-05-10T03:16:02.875Z,63.35
2023-05-10T03:18:34.531Z,63.80
2023-05-10T03:21:06.566Z,65.04
2023-05-10T03:23:41.282Z,66.09
2023-05-10T03:26:08.880Z,67.04
2023-05-10T03:28:36.663Z,66.66
2023-05-10T03:31:04.621Z,66.56
2023-05-10T03:33:31.599Z,66.57
2023-05-10T03:35:58.580Z,66.99
2023-05-10T03:38:25.602Z,66.94
2023-05-10T03:40:52.466Z,66.28
2023-05-10T03:43:19.453Z,66.27
2023-05-10T03:45:46.474Z,65.73
2023-05-10T03:48:15.110Z,65.30
2023-05-10T03:50:42.159Z,65.15
2023-05-10T03:53:09.117Z,65.78
2023-05-10T03:55:37.522Z,65.71
2023-05-10T03:58:04.404Z,65.55
2023-05-10T04:00:32.029Z,65.43
2023-05-10T04:02:58.868Z,65.23
2023-05-10T04:05:25.825Z,65.83
2023-05-10T04:07:52.738Z,66.26
2023-05-10T04:10:19.971Z,65.55
2023-05-10T04:12:47.416Z,65.17
2023-05-10T04:15:14.475Z,65.22
2023-05-10T04:17:41.379Z,65.11
2023-05-10T04:20:09.610Z,65.26
2023-05-10T04:22:36.825Z,64.88
2023-05-10T04:25:04.046Z,64.88
2023-05-10T04:27:31.001Z,64.76
2023-05-10T04:29:58.155Z,64.79
2023-05-10T04:32:25.113Z,64.34
2023-05-10T04:34:52.611Z,64.34
2023-05-10T04:37:19.566Z,63.89
2023-05-10T04:39:46.395Z,64.02
2023-05-10T04:42:13.265Z,63.12
2023-05-10T04:44:40.069Z,62.86
2023-05-10T04:47:06.994Z,63.09
2023-05-10T04:49:33.953Z,63.02
2023-05-10T04:52:00.854Z,62.67
2023-05-10T04:54:27.909Z,62.23
2023-05-10T04:56:54.866Z,62.25
2023-05-10T04:59:21.822Z,62.77
2023-05-10T05:01:48.984Z,65.25
2023-05-10T05:04:16.122Z,60.00
2023-05-10T05:06:43.114Z,53.59
2023-05-10T05:09:11.502Z,50.84
2023-05-10T05:11:38.614Z,49.52
2023-05-10T05:14:05.585Z,50.90
2023-05-10T05:16:33.301Z,49.32
2023-05-10T05:19:01.943Z,51.52
2023-05-10T05:21:30.307Z,48.84
2023-05-10T05:23:57.399Z,49.34
2023-05-10T05:26:24.286Z,47.35
2023-05-10T05:28:54.896Z,47.92
2023-05-10T05:31:22.205Z,47.61
2023-05-10T05:33:49.269Z,47.32
2023-05-10T05:36:16.270Z,47.22
2023-05-10T05:38:44.282Z,46.10
2023-05-10T05:41:11.211Z,46.76
2023-05-10T05:43:38.752Z,47.28
2023-05-10T05:46:06.034Z,48.14
2023-05-10T05:48:33.298Z,49.35
2023-05-10T05:51:00.358Z,50.72
2023-05-10T05:53:31.254Z,52.28
2023-05-10T05:55:59.421Z,52.55
2023-05-10T05:58:27.320Z,50.84
2023-05-10T06:00:56.724Z,50.58
2023-05-10T06:03:24.381Z,50.52
2023-05-10T06:05:51.715Z,49.64
2023-05-10T06:08:18.771Z,51.07
2023-05-10T06:10:46.975Z,51.47
2023-05-10T06:13:14.208Z,50.57
2023-05-10T06:15:41.594Z,48.88
2023-05-10T06:18:11.036Z,49.28
2023-05-10T06:20:38.191Z,47.05
2023-05-10T06:23:08.182Z,49.31
2023-05-10T06:25:35.205Z,47.16
2023-05-10T06:28:03.072Z,47.71
2023-05-10T06:30:30.460Z,48.56
2023-05-10T06:32:57.866Z,48.69
2023-05-10T06:35:25.311Z,48.21
2023-05-10T06:37:52.840Z,49.87
2023-05-10T06:40:20.491Z,50.06
2023-05-10T06:42:48.144Z,50.99
2023-05-10T06:45:16.369Z,48.19
2023-05-10T06:47:43.902Z,47.33
2023-05-10T06:50:12.640Z,46.73
2023-05-10T06:52:39.747Z,45.06
2023-05-10T06:55:07.118Z,47.13
2023-05-10T06:57:34.619Z,49.53
2023-05-10T07:00:01.753Z,49.55
2023-05-10T07:02:29.154Z,51.35
2023-05-10T07:04:56.253Z,47.45
2023-05-10T07:07:23.718Z,48.60
2023-05-10T07:09:51.634Z,48.75
2023-05-10T07:12:18.949Z,49.88
2023-05-10T07:14:46.405Z,50.85
2023-05-10T07:17:13.542Z,51.48
2023-05-10T07:19:40.784Z,51.58
2023-05-10T07:22:08.020Z,54.25
2023-05-10T07:24:35.171Z,52.40
2023-05-10T07:27:02.473Z,51.22
2023-05-10T07:29:30.255Z,50.14
2023-05-10T07:32:01.835Z,49.12
2023-05-10T07:34:29.450Z,51.18
2023-05-10T07:36:56.810Z,50.48
2023-05-10T07:39:27.798Z,51.20
2023-05-10T07:41:58.350Z,50.95
2023-05-10T07:44:25.356Z,51.39
2023-05-10T07:46:54.792Z,49.54
2023-05-10T07:49:21.651Z,49.20
2023-05-10T07:51:48.562Z,49.03
2023-05-10T07:54:15.511Z,49.00
2023-05-10T07:56:46.900Z,49.81
2023-05-10T07:59:18.209Z,49.84
2023-05-10T08:01:45.271Z,50.44
2023-05-10T08:04:12.986Z,48.54
2023-05-10T08:06:41.421Z,45.84
2023-05-10T08:09:09.910Z,44.18
2023-05-10T08:11:37.236Z,43.26
2023-05-10T08:14:04.242Z,42.51
2023-05-10T08:16:31.385Z,41.61
2023-05-10T08:18:58.540Z,40.49
2023-05-10T08:21:25.658Z,41.01
2023-05-10T08:23:53.035Z,42.72
2023-05-10T08:26:24.526Z,43.02
2023-05-10T08:28:51.587Z,42.76
2023-05-10T08:31:19.368Z,42.24
2023-05-10T08:33:46.505Z,41.28
2023-05-10T08:36:15.348Z,42.67
2023-05-10T08:38:42.264Z,44.57
2023-05-10T08:41:09.684Z,46.26
2023-05-10T08:43:36.603Z,46.21
2023-05-10T08:46:04.333Z,46.70
2023-05-10T08:48:32.384Z,46.81
2023-05-10T08:51:07.559Z,47.32
2023-05-10T08:53:34.859Z,47.28
2023-05-10T08:56:03.805Z,47.64
2023-05-10T08:58:30.919Z,47.20
2023-05-10T09:00:58.109Z,44.81
2023-05-10T09:03:25.423Z,44.38
2023-05-10T09:05:52.600Z,44.61
2023-05-10T09:08:19.752Z,41.96
2023-05-10T09:10:49.103Z,42.85
2023-05-10T09:13:17.095Z,41.20
2023-05-10T09:15:45.853Z,42.16
2023-05-10T09:18:13.581Z,42.64
2023-05-10T09:20:40.773Z,42.87
2023-05-10T09:23:08.055Z,42.20
2023-05-10T09:25:35.190Z,41.68
2023-05-10T09:28:02.222Z,43.40
2023-05-10T09:30:32.855Z,41.12
2023-05-10T09:33:00.545Z,41.17
2023-05-10T09:35:30.007Z,39.75
2023-05-10T09:37:58.750Z,40.68
2023-05-10T09:40:26.672Z,38.47
2023-05-10T09:42:56.587Z,39.99
2023-05-10T09:45:24.978Z,41.36
2023-05-10T09:47:51.948Z,41.59
2023-05-10T09:50:19.828Z,40.09
2023-05-10T09:52:52.683Z,40.49
2023-05-10T09:55:24.743Z,40.04
2023-05-10T09:58:01.848Z,38.81
2023-05-10T10:00:29.231Z,40.98
2023-05-10T10:02:57.663Z,40.94
2023-05-10T10:05:34.695Z,41.33
2023-05-10T10:08:04.507Z,40.10
2023-05-10T10:10:32.558Z,40.15
2023-05-10T10:12:59.742Z,40.04
2023-05-10T10:15:26.954Z,40.54
2023-05-10T10:17:54.173Z,40.35
2023-05-10T10:20:22.196Z,39.88
2023-05-10T10:22:49.561Z,39.56
2023-05-10T10:25:18.030Z,39.60
2023-05-10T10:27:54.394Z,37.09
2023-05-10T10:30:45.994Z,38.64
2023-05-10T10:33:47.524Z,38.49
2023-05-10T10:36:16.249Z,38.61
2023-05-10T10:39:00.421Z,37.79
2023-05-10T10:41:34.299Z,37.91
2023-05-10T10:44:23.464Z,36.65
2023-05-10T10:47:13.383Z,37.46
2023-05-10T10:49:43.138Z,35.89
2023-05-10T10:52:34.495Z,36.84
2023-05-10T10:55:10.351Z,35.99
2023-05-10T10:57:52.900Z,34.12
2023-05-10T11:00:31.989Z,35.96
2023-05-10T11:03:00.194Z,35.22
2023-05-10T11:05:30.072Z,34.88
2023-05-10T11:07:58.753Z,36.54
2023-05-10T11:10:25.996Z,35.97
2023-05-10T11:13:03.062Z,35.17
2023-05-10T11:15:31.815Z,34.18
2023-05-10T11:17:58.706Z,35.69
2023-05-10T11:20:34.150Z,35.90
2023-05-10T11:23:14.441Z,33.83
2023-05-10T11:25:48.211Z,33.54
2023-05-10T11:28:15.222Z,33.68
2023-05-10T11:30:43.205Z,34.86
2023-05-10T11:33:10.755Z,34.21
2023-05-10T11:35:43.317Z,32.74
2023-05-10T11:38:14.213Z,34.61
2023-05-10T11:40:41.604Z,33.66
2023-05-10T11:43:09.633Z,35.06
2023-05-10T11:45:36.537Z,33.19
2023-05-10T11:48:04.000Z,33.29
2023-05-10T11:50:30.961Z,35.83
2023-05-10T11:52:58.104Z,35.29
2023-05-10T11:55:27.740Z,34.28
2023-05-10T11:57:55.696Z,35.44
2023-05-10T12:00:22.927Z,35.02
2023-05-10T12:02:49.976Z,34.38
2023-05-10T12:05:17.196Z,34.50
2023-05-10T12:07:44.396Z,34.81
2023-05-10T12:10:19.315Z,35.07
2023-05-10T12:12:48.617Z,34.59
2023-05-10T12:15:25.620Z,36.25
2023-05-10T12:17:52.656Z,34.09
2023-05-10T12:20:24.460Z,33.40
2023-05-10T12:22:55.660Z,35.21
2023-05-10T12:25:24.496Z,34.55
2023-05-10T12:27:59.354Z,33.76
2023-05-10T12:30:30.076Z,32.84
2023-05-10T12:33:11.274Z,33.18
2023-05-10T12:35:52.379Z,34.75
2023-05-10T12:38:35.391Z,34.50
2023-05-10T12:41:04.090Z,33.39
2023-05-10T12:43:31.398Z,34.46
2023-05-10T12:45:58.425Z,32.85
2023-05-10T12:48:25.612Z,33.52
2023-05-10T12:50:52.800Z,30.67
2023-05-10T12:53:19.624Z,34.63
2023-05-10T12:55:46.674Z,31.21
2023-05-10T12:58:18.044Z,32.76
2023-05-10T13:00:55.040Z,33.86
2023-05-10T13:03:21.931Z,31.59
2023-05-10T13:05:48.811Z,29.81
2023-05-10T13:08:15.758Z,30.84
2023-05-10T13:10:42.741Z,31.64
2023-05-10T13:13:13.881Z,34.72
2023-05-10T13:15:41.042Z,37.94
2023-05-10T13:18:08.142Z,41.73
2023-05-10T13:20:35.098Z,45.17
2023-05-10T13:23:02.037Z,44.96
2023-05-10T13:25:28.971Z,43.39
2023-05-10T13:27:55.871Z,42.74
2023-05-10T13:30:22.714Z,42.72
2023-05-10T13:32:49.780Z,44.88
2023-05-10T13:35:16.626Z,46.33
2023-05-10T13:37:43.567Z,46.65
2023-05-10T13:40:12.777Z,47.75
2023-05-10T13:42:39.637Z,46.23
2023-05-10T13:45:07.368Z,45.41
2023-05-10T13:47:34.362Z,43.59
2023-05-10T13:50:01.937Z,42.68
2023-05-10T13:52:28.806Z,42.63
2023-05-10T13:54:58.579Z,39.52
2023-05-10T13:57:25.479Z,39.78
2023-05-10T13:59:54.725Z,38.38
2023-05-10T14:02:23.132Z,39.26
2023-05-10T14:04:50.027Z,40.36
2023-05-10T14:07:16.929Z,35.39
2023-05-10T14:09:43.840Z,37.65
2023-05-10T14:12:10.793Z,38.06
2023-05-10T14:14:37.797Z,36.96
2023-05-10T14:17:04.755Z,34.95
2023-05-10T14:19:33.654Z,35.02
2023-05-10T14:22:01.018Z,35.74
2023-05-10T14:24:27.962Z,35.84
2023-05-10T14:26:56.399Z,35.18
2023-05-10T14:29:23.425Z,35.31
2023-05-10T14:31:51.080Z,35.61
2023-05-10T14:34:18.062Z,35.19
2023-05-10T14:36:45.041Z,34.92
2023-05-10T14:39:14.249Z,34.88
2023-05-10T14:41:45.880Z,33.44
2023-05-10T14:44:33.027Z,32.79
2023-05-10T14:47:00.154Z,35.14
2023-05-10T14:49:27.831Z,33.85
2023-05-10T14:51:57.758Z,35.44
2023-05-10T14:54:24.758Z,34.33
2023-05-10T14:56:51.826Z,36.06
2023-05-10T14:59:18.952Z,34.89
2023-05-10T15:01:47.045Z,35.21
2023-05-10T15:04:14.731Z,35.58
2023-05-10T15:06:42.245Z,34.44
2023-05-10T15:09:09.949Z,36.08
2023-05-10T15:11:36.967Z,34.54
2023-05-10T15:14:03.844Z,36.32
2023-05-10T15:16:32.235Z,35.89
2023-05-10T15:19:00.834Z,36.80
2023-05-10T15:21:31.282Z,39.20
2023-05-10T15:23:58.244Z,37.83
2023-05-10T15:26:27.376Z,38.08
2023-05-10T15:28:54.486Z,39.65
2023-05-10T15:31:21.477Z,40.94
2023-05-10T15:33:48.346Z,40.38
2023-05-10T15:36:15.403Z,40.65
2023-05-10T15:38:42.480Z,41.28
2023-05-10T15:41:09.434Z,39.71
2023-05-10T15:43:36.795Z,39.15
2023-05-10T15:46:03.644Z,39.81
2023-05-10T15:48:32.440Z,39.59
2023-05-10T15:50:59.430Z,39.15
2023-05-10T15:53:26.181Z,38.85
2023-05-10T15:55:53.129Z,40.29
2023-05-10T15:58:20.014Z,39.45
2023-05-10T16:00:46.921Z,37.99
2023-05-10T16:03:14.957Z,38.45
2023-05-10T16:05:41.936Z,39.22
2023-05-10T16:08:08.881Z,37.58
2023-05-10T16:10:35.662Z,37.29
2023-05-10T16:13:04.205Z,36.39
2023-05-10T16:15:31.085Z,38.73
2023-05-10T16:17:58.267Z,35.08
2023-05-10T16:20:25.986Z,37.14
2023-05-10T16:22:53.227Z,36.55
2023-05-10T16:25:20.306Z,36.79
2023-05-10T16:27:47.270Z,38.91
2023-05-10T16:30:14.772Z,38.91
2023-05-10T16:32:41.673Z,38.16
2023-05-10T16:35:11.072Z,36.02
2023-05-10T16:37:37.964Z,36.04
2023-05-10T16:40:05.501Z,35.32
2023-05-10T16:42:32.754Z,34.68
2023-05-10T16:45:07.490Z,34.63
2023-05-10T16:47:35.729Z,34.56
2023-05-10T16:50:03.346Z,35.09
2023-05-10T16:52:30.303Z,36.11
2023-05-10T16:54:57.152Z,35.81
2023-05-10T16:57:24.232Z,36.82
2023-05-10T16:59:53.618Z,38.04
2023-05-10T17:02:21.047Z,37.42
2023-05-10T17:04:47.921Z,37.69
2023-05-10T17:07:14.727Z,39.02
2023-05-10T17:09:42.730Z,39.13
2023-05-10T17:12:09.632Z,39.04
2023-05-10T17:14:37.653Z,37.79
2023-05-10T17:17:04.778Z,38.02
2023-05-10T17:19:31.912Z,38.92
2023-05-10T17:21:58.874Z,38.75
2023-05-10T17:24:27.306Z,38.13
2023-05-10T17:26:54.183Z,39.07
2023-05-10T17:29:20.952Z,40.04
2023-05-10T17:31:48.024Z,40.56
2023-05-10T17:34:14.860Z,40.99
2023-05-10T17:36:41.676Z,41.14
2023-05-10T17:39:08.445Z,41.31
2023-05-10T17:41:35.476Z,41.43
2023-05-10T17:44:02.312Z,42.66
2023-05-10T17:46:29.370Z,42.06
2023-05-10T17:48:56.425Z,42.82
2023-05-10T17:51:23.336Z,43.12
2023-05-10T17:53:50.282Z,44.07
2023-05-10T17:56:17.237Z,44.26
2023-05-10T17:58:44.114Z,43.70
2023-05-10T18:01:11.416Z,44.85
2023-05-10T18:03:38.444Z,44.98
2023-05-10T18:06:05.642Z,45.59
2023-05-10T18:08:33.252Z,45.36
2023-05-10T18:11:00.159Z,45.21
2023-05-10T18:13:26.995Z,45.01
2023-05-10T18:15:53.868Z,45.56
2023-05-10T18:18:20.927Z,45.05
2023-05-10T18:20:47.958Z,45.02
2023-05-10T18:23:15.411Z,45.44
2023-05-10T18:25:42.231Z,46.39
2023-05-10T18:28:09.133Z,46.55
2023-05-10T18:30:36.020Z,47.19
2023-05-10T18:33:03.647Z,48.02
2023-05-10T18:35:30.569Z,48.52
2023-05-10T18:37:57.416Z,48.78
2023-05-10T18:40:24.320Z,49.94
2023-05-10T18:42:51.304Z,52.20
2023-05-10T18:45:18.473Z,50.98
2023-05-10T18:47:45.989Z,52.79
2023-05-10T18:50:13.517Z,51.11
2023-05-10T18:52:40.484Z,51.35
2023-05-10T18:55:08.538Z,52.33
2023-05-10T18:57:41.889Z,52.84
2023-05-10T19:00:10.904Z,53.21
2023-05-10T19:02:39.619Z,55.96
2023-05-10T19:05:07.291Z,55.01
2023-05-10T19:07:34.220Z,55.96
2023-05-10T19:10:01.143Z,55.17
2023-05-10T19:12:28.596Z,54.88
2023-05-10T19:14:55.950Z,55.44
2023-05-10T19:17:23.108Z,56.25
2023-05-10T19:19:50.911Z,56.56
2023-05-10T19:22:31.990Z,56.20
2023-05-10T19:25:10.838Z,56.40
2023-05-10T19:27:38.754Z,56.61
2023-05-10T19:30:07.276Z,56.99
2023-05-10T19:32:34.289Z,56.56
2023-05-10T19:35:01.331Z,56.31
2023-05-10T19:37:28.387Z,56.80
2023-05-10T19:39:55.548Z,56.78
2023-05-10T19:42:22.405Z,57.08
2023-05-10T19:44:49.368Z,59.12
2023-05-10T19:47:16.381Z,59.87
2023-05-10T19:49:43.331Z,60.21
2023-05-10T19:52:12.027Z,60.20
2023-05-10T19:54:38.969Z,59.95
2023-05-10T19:57:05.818Z,60.04
2023-05-10T19:59:32.788Z,60.98
2023-05-10T20:01:59.617Z,60.29
2023-05-10T20:04:28.249Z,60.05
2023-05-10T20:06:55.204Z,60.36
2023-05-10T20:09:22.021Z,60.24
2023-05-10T20:11:49.202Z,59.88
2023-05-10T20:14:16.637Z,59.83
2023-05-10T20:16:43.477Z,60.15
2023-05-10T20:19:11.908Z,60.72
2023-05-10T20:21:38.910Z,60.09
2023-05-10T20:24:07.806Z,60.18
2023-05-10T20:26:34.729Z,60.32
2023-05-10T20:29:01.597Z,59.99
2023-05-10T20:31:29.390Z,60.37
2023-05-10T20:33:56.390Z,59.51
2023-05-10T20:36:23.293Z,59.93
2023-05-10T20:38:50.045Z,59.46
2023-05-10T20:41:16.843Z,59.29
2023-05-10T20:43:43.733Z,59.31
2023-05-10T20:46:11.173Z,60.57
2023-05-10T20:48:38.079Z,59.95
2023-05-10T20:51:04.910Z,60.05
2023-05-10T20:53:31.713Z,59.58
2023-05-10T20:55:58.591Z,60.99
2023-05-10T20:58:25.554Z,61.00
2023-05-10T21:00:52.498Z,61.10
2023-05-10T21:03:20.387Z,61.67
2023-05-10T21:05:47.551Z,61.28
2023-05-10T21:08:14.388Z,60.82
2023-05-10T21:10:41.208Z,60.58
2023-05-10T21:13:08.153Z,60.12
2023-05-10T21:15:35.925Z,60.64
2023-05-10T21:18:02.990Z,60.61
2023-05-10T21:20:30.192Z,60.94
2023-05-10T21:22:57.960Z,61.14
2023-05-10T21:25:25.671Z,61.20
2023-05-10T21:27:52.504Z,61.71
2023-05-10T21:30:19.658Z,61.80
2023-05-10T21:32:46.878Z,61.65
2023-05-10T21:35:13.742Z,62.87
2023-05-10T21:37:40.948Z,62.16
2023-05-10T21:40:08.362Z,62.71
2023-05-10T21:42:35.374Z,62.50
2023-05-10T21:45:02.152Z,62.81
2023-05-10T21:47:29.225Z,63.46
2023-05-10T21:49:56.582Z,63.55
2023-05-10T21:52:23.459Z,63.22
2023-05-10T21:54:50.407Z,63.96
2023-05-10T21:57:17.656Z,64.66
2023-05-10T21:59:44.526Z,64.15
2023-05-10T22:02:11.561Z,64.45
2023-05-10T22:04:38.480Z,63.66
2023-05-10T22:07:05.389Z,63.60
2023-05-10T22:09:32.222Z,64.35
2023-05-10T22:11:59.255Z,63.77
2023-05-10T22:14:26.162Z,63.99
2023-05-10T22:16:53.175Z,64.56
2023-05-10T22:19:20.100Z,63.39
2023-05-10T22:21:47.173Z,62.82
2023-05-10T22:24:14.065Z,63.38
2023-05-10T22:26:41.054Z,61.92
2023-05-10T22:29:07.961Z,62.84
2023-05-10T22:31:34.853Z,62.74
2023-05-10T22:34:02.015Z,63.21
2023-05-10T22:36:29.546Z,63.84
2023-05-10T22:38:56.863Z,63.85
2023-05-10T22:41:24.198Z,65.05
2023-05-10T22:43:51.085Z,64.98
2023-05-10T22:46:17.944Z,64.14
2023-05-10T22:48:44.802Z,63.42
2023-05-10T22:51:12.351Z,62.77
2023-05-10T22:53:39.177Z,63.07
2023-05-10T22:56:06.423Z,63.90
2023-05-10T22:58:33.495Z,65.08
2023-05-10T23:01:00.462Z,64.00
2023-05-10T23:03:27.348Z,64.18
2023-05-10T23:05:54.147Z,64.07
2023-05-10T23:08:21.547Z,64.67
2023-05-10T23:10:48.485Z,64.23
2023-05-10T23:13:15.591Z,64.00
2023-05-10T23:15:43.867Z,63.63
2023-05-10T23:18:10.825Z,62.35
2023-05-10T23:20:37.745Z,62.03
2023-05-10T23:23:05.480Z,60.53
2023-05-10T23:25:32.303Z,59.86
2023-05-10T23:27:59.106Z,59.32
2023-05-10T23:30:25.960Z,59.08
2023-05-10T23:32:52.857Z,58.29
2023-05-10T23:35:19.777Z,58.57
2023-05-10T23:37:46.791Z,57.68
2023-05-10T23:40:14.854Z,57.37
2023-05-10T23:42:41.800Z,57.41
2023-05-10T23:45:09.124Z,56.69
2023-05-10T23:47:35.972Z,56.74
2023-05-10T23:50:02.998Z,56.90
2023-05-10T23:52:29.832Z,56.90
2023-05-10T23:54:56.889Z,56.64
2023-05-10T23:57:23.680Z,56.93
2023-05-10T23:59:50.468Z,56.47
